Terminal Aerodrome Forecast
Issued by NWS Sterling, VA

Current Version | Previous Version | Graphics & Text | Print | Product List | Glossary On
Versions: 1 2 3 4 5 6 7 8 9 10 11 12 13 14 15 16 17 18 19 20 21 22 23
000
FTUS41 KLWX 181600 AAB
TAFDCA
TAF AMD
KDCA 181619Z 1816/1912 30009G17KT P6SM BKN040
     FM182200 30008KT P6SM SCT150
     FM190300 31007KT P6SM BKN110
     FM190800 30007KT P6SM SCT100=

USA.gov is the U.S. government's official web portal to all federal, state and local government web resources and services.